Munds Park, Arizona
Current Conditions -  °F | °C
As of 2:35 PM on Friday 24 Oct 2014 (Local Time) from KSEZ Reporting Station
Clear Clear  
Wind Chill: 82°   Ceiling: Unl
Heat Index: 82°   Visibility: 10mi
Dew Point: 32°   Wind: 6mph
Humidity: 16%   Direction: 190°S
Pressure: 30.21"   Gusts: NA
Location:  34.95°N, 111.64°W
Report Text: KSEZ 242135Z AUTO 19005KT 10SM CLR 28/00 A3021 RMK AO2
Loading
Personal Weather Stations






























Interactive Weather Map
Tropical Storm Tracking
New forecast layout! Learn more

10-Day Weather Forecast

Advertisements
Track Severe Weather on mobile